Time;durP1;ratioP1;P1;durP2;ratioP2;P2;SDS_P1;SDS_P2;PMS_P1;PMS_P2;Temp;Humidity;BMP_temperature;BMP_pressure;BME280_temperature;BME280_humidity;BME280_pressure;Samples;Min_cycle;Max_cycle;Signal;HPM_P1;HPM_P2
2021/12/08 06:00:47;;;;;;;5.70;5.10;;;6.00;97.20;;;;;;1715149;28;20210;-80
2021/12/08 06:01:46;;;;;;;5.40;4.90;;;6.00;97.20;;;;;;1715800;28;20216;-82
2021/12/08 06:02:38;;;;;;;5.30;4.80;;;6.00;97.20;;;;;;1716014;28;20286;-83
2021/12/08 06:03:29;;;;;;;5.10;4.70;;;6.00;97.20;;;;;;1715444;28;20305;-82
2021/12/08 06:04:23;;;;;;;4.80;4.40;;;6.00;97.20;;;;;;1715847;28;20301;-82
2021/12/08 06:05:16;;;;;;;5.57;5.07;;;6.00;97.20;;;;;;1715131;28;20419;-82
2021/12/08 06:06:08;;;;;;;5.03;4.60;;;6.00;97.20;;;;;;1711056;28;20222;-83
2021/12/08 06:07:00;;;;;;;5.43;4.60;;;6.00;97.20;;;;;;1710294;28;20201;-82
2021/12/08 06:07:52;;;;;;;6.03;4.93;;;6.00;97.20;;;;;;1710082;29;20285;-82
2021/12/08 06:08:43;;;;;;;5.43;4.95;;;6.00;97.20;;;;;;1710282;29;20218;-82
2021/12/08 06:09:36;;;;;;;5.82;5.38;;;6.00;97.20;;;;;;1709403;29;20198;-81
2021/12/08 06:10:32;;;;;;;5.07;4.68;;;6.00;97.20;;;;;;1708945;28;20287;-81
2021/12/08 06:11:26;;;;;;;5.22;4.80;;;6.00;97.20;;;;;;1709230;29;20234;-81
2021/12/08 06:12:17;;;;;;;5.40;4.90;;;6.00;97.20;;;;;;1708859;29;20237;-81
2021/12/08 06:13:13;;;;;;;4.80;4.40;;;6.00;97.20;;;;;;1708995;29;20215;-80
2021/12/08 06:14:07;;;;;;;5.35;4.50;;;6.00;97.20;;;;;;1708729;29;20454;-80
2021/12/08 06:14:58;;;;;;;4.90;4.50;;;6.00;97.20;;;;;;1709126;28;20206;-80
2021/12/08 06:15:51;;;;;;;5.15;4.75;;;6.00;97.20;;;;;;1715451;28;20198;-80
2021/12/08 06:16:45;;;;;;;5.40;4.90;;;6.00;97.20;;;;;;1715194;28;20344;-80
2021/12/08 06:17:36;;;;;;;5.60;5.05;;;6.00;97.20;;;;;;1709010;28;20609;-80
2021/12/08 06:18:32;;;;;;;5.85;5.35;;;6.00;97.20;;;;;;1709705;29;20208;-80
2021/12/08 06:19:22;;;;;;;5.20;4.80;;;6.00;97.20;;;;;;1709390;29;20214;-80
2021/12/08 06:20:16;;;;;;;5.57;5.07;;;6.10;97.20;;;;;;1709612;28;20198;-80
2021/12/08 06:21:10;;;;;;;5.60;5.10;;;6.10;97.20;;;;;;1709634;29;20446;-80
2021/12/08 06:22:03;;;;;;;4.72;4.32;;;6.10;97.20;;;;;;1709519;29;20323;-80
2021/12/08 06:22:56;;;;;;;4.80;4.40;;;6.10;97.20;;;;;;1709966;29;20237;-80
2021/12/08 06:23:49;;;;;;;5.57;5.07;;;6.10;97.20;;;;;;1709044;28;20206;-79
2021/12/08 06:24:40;;;;;;;5.65;4.80;;;6.10;97.20;;;;;;1709198;29;20213;-80
2021/12/08 06:25:34;;;;;;;6.53;5.93;;;6.10;97.20;;;;;;1709459;29;20237;-80
2021/12/08 06:26:27;;;;;;;5.13;4.63;;;6.10;97.20;;;;;;1713379;28;20252;-85
2021/12/08 06:27:19;;;;;;;5.45;4.95;;;6.10;97.20;;;;;;1714835;28;20210;-79
2021/12/08 06:28:10;;;;;;;4.82;4.43;;;6.10;97.20;;;;;;1714393;28;20202;-78
2021/12/08 06:29:03;;;;;;;4.80;4.40;;;6.10;97.20;;;;;;1715144;28;20190;-78
2021/12/08 06:29:54;;;;;;;5.40;5.00;;;6.10;97.20;;;;;;1713977;28;20197;-81
2021/12/08 06:30:47;;;;;;;6.15;5.60;;;6.10;97.20;;;;;;1714620;28;20236;-78
2021/12/08 06:31:40;;;;;;;5.20;4.80;;;6.10;97.20;;;;;;1714436;28;20670;-78
2021/12/08 06:32:31;;;;;;;5.00;4.55;;;6.10;97.20;;;;;;1713810;28;20218;-77
2021/12/08 06:33:22;;;;;;;4.40;4.05;;;6.10;97.20;;;;;;1714076;28;20210;-78
2021/12/08 06:34:15;;;;;;;5.20;4.70;;;6.20;97.20;;;;;;1713978;28;20591;-78
2021/12/08 06:35:10;;;;;;;4.78;4.38;;;6.20;97.20;;;;;;1714275;28;20248;-78
2021/12/08 06:36:07;;;;;;;4.53;4.13;;;6.20;97.20;;;;;;1714094;28;20198;-78
2021/12/08 06:37:01;;;;;;;4.38;3.97;;;6.30;97.20;;;;;;1714687;28;20202;-78
2021/12/08 06:37:54;;;;;;;5.43;4.82;;;6.30;97.20;;;;;;1708827;28;20203;-78
2021/12/08 06:38:45;;;;;;;4.80;4.40;;;6.30;97.20;;;;;;1708965;28;20214;-77
2021/12/08 06:39:41;;;;;;;4.57;4.18;;;6.40;97.20;;;;;;1708928;28;20203;-78
2021/12/08 06:40:36;;;;;;;4.35;3.95;;;6.40;97.20;;;;;;1708847;28;20599;-77
2021/12/08 06:41:31;;;;;;;4.85;3.75;;;6.40;97.20;;;;;;1708878;28;20199;-78
2021/12/08 06:42:27;;;;;;;4.65;3.95;;;6.40;97.20;;;;;;1708868;29;20226;-78
2021/12/08 06:43:21;;;;;;;4.43;4.13;;;6.40;97.20;;;;;;1709035;29;20628;-77
2021/12/08 06:44:16;;;;;;;4.03;3.72;;;6.40;97.20;;;;;;1708630;29;20212;-78
2021/12/08 06:45:13;;;;;;;4.43;4.07;;;6.50;97.20;;;;;;1708726;29;20198;-78
2021/12/08 06:46:04;;;;;;;4.20;3.90;;;6.50;97.20;;;;;;1708988;29;20246;-77
2021/12/08 06:46:58;;;;;;;4.57;4.18;;;6.50;97.20;;;;;;1708711;29;20198;-77
2021/12/08 06:47:51;;;;;;;5.10;4.70;;;6.50;97.20;;;;;;1715088;28;20202;-78
2021/12/08 06:48:46;;;;;;;5.40;5.00;;;6.50;97.20;;;;;;1715591;28;20202;-78
2021/12/08 06:49:37;;;;;;;4.80;4.40;;;6.60;97.20;;;;;;1715547;28;20213;-78
2021/12/08 06:50:34;;;;;;;4.50;4.20;;;6.60;97.20;;;;;;1715380;28;20264;-77
2021/12/08 06:51:28;;;;;;;4.82;4.30;;;6.60;97.20;;;;;;1715773;28;20669;-78
2021/12/08 06:52:23;;;;;;;4.63;4.22;;;6.60;97.20;;;;;;1715336;28;20209;-77
2021/12/08 06:53:14;;;;;;;4.63;4.32;;;6.60;97.20;;;;;;1715830;28;20202;-79
2021/12/08 06:54:09;;;;;;;5.13;4.63;;;6.70;97.20;;;;;;1715939;28;20201;-78
2021/12/08 06:55:08;;;;;;;6.07;4.40;;;6.70;97.20;;;;;;1715655;28;20256;-78
2021/12/08 06:56:03;;;;;;;4.53;4.10;;;6.70;97.20;;;;;;1715758;28;20204;-78
2021/12/08 06:56:59;;;;;;;5.45;4.93;;;6.70;97.20;;;;;;1715597;28;20229;-78
2021/12/08 06:57:55;;;;;;;4.85;4.20;;;6.70;97.20;;;;;;1715334;28;20196;-79
2021/12/08 06:58:49;;;;;;;6.80;4.78;;;6.70;97.20;;;;;;1715812;28;20237;-78
2021/12/08 06:59:53;;;;;;;4.90;4.45;;;6.70;97.20;;;;;;1715778;28;20620;-78
2021/12/08 07:00:53;;;;;;;5.38;4.88;;;6.80;97.20;;;;;;1715516;28;20233;-78
2021/12/08 07:01:55;;;;;;;5.63;4.45;;;6.80;97.20;;;;;;1715822;28;20556;-77
2021/12/08 07:03:04;;;;;;;4.90;4.50;;;6.80;97.20;;;;;;1715616;28;20276;-78
2021/12/08 07:04:10;;;;;;;5.00;4.50;;;6.80;97.20;;;;;;1715352;28;20202;-78
2021/12/08 07:05:11;;;;;;;5.60;5.10;;;6.80;97.20;;;;;;1715505;28;20260;-77
2021/12/08 07:06:09;;;;;;;4.72;4.32;;;6.80;97.20;;;;;;1715366;28;20198;-78
2021/12/08 07:07:12;;;;;;;6.00;5.50;;;6.80;97.20;;;;;;1715098;28;20344;-77
2021/12/08 07:08:08;;;;;;;5.13;4.65;;;6.80;97.20;;;;;;1709154;28;20210;-78
2021/12/08 07:09:00;;;;;;;7.88;4.85;;;6.80;97.20;;;;;;1708974;29;20658;-78
2021/12/08 07:09:54;;;;;;;5.32;4.80;;;6.80;97.20;;;;;;1708700;28;20244;-78
2021/12/08 07:10:48;;;;;;;4.88;4.53;;;6.80;97.20;;;;;;1712653;28;20671;-78
2021/12/08 07:11:40;;;;;;;4.80;4.40;;;6.80;97.20;;;;;;1715608;28;20703;-78
2021/12/08 07:12:34;;;;;;;5.60;5.20;;;6.80;97.20;;;;;;1715445;28;20209;-78
2021/12/08 07:13:28;;;;;;;5.05;4.65;;;6.80;97.20;;;;;;1715263;28;20234;-78
2021/12/08 07:14:21;;;;;;;5.07;4.60;;;6.80;97.20;;;;;;1715617;28;20573;-78
2021/12/08 07:15:16;;;;;;;5.38;4.88;;;6.80;97.20;;;;;;1715042;28;20198;-78
2021/12/08 07:16:12;;;;;;;6.63;6.03;;;6.80;97.20;;;;;;1719048;28;20193;-79
2021/12/08 07:17:08;;;;;;;6.40;5.80;;;6.80;97.20;;;;;;1721854;28;20236;-78
2021/12/08 07:18:06;;;;;;;6.30;5.80;;;6.80;97.20;;;;;;1715341;28;20202;-78
2021/12/08 07:19:09;;;;;;;7.00;6.38;;;6.80;97.20;;;;;;1715550;28;20233;-78
2021/12/08 07:20:15;;;;;;;8.10;7.40;;;6.70;97.20;;;;;;1715547;28;20689;-78
2021/12/08 07:21:09;;;;;;;10.98;9.80;;;6.70;97.20;;;;;;1714730;28;20194;-78
2021/12/08 07:22:05;;;;;;;15.52;12.18;;;6.60;97.20;;;;;;1711693;28;20194;-78
2021/12/08 07:22:58;;;;;;;18.75;14.57;;;6.60;97.20;;;;;;1714803;28;20234;-78
2021/12/08 07:23:54;;;;;;;21.52;15.15;;;6.60;97.20;;;;;;1708652;28;20581;-78
2021/12/08 07:24:47;;;;;;;19.13;14.48;;;6.50;97.20;;;;;;1712643;28;20336;-79
2021/12/08 07:25:38;;;;;;;18.50;12.98;;;6.50;97.20;;;;;;1712473;28;20235;-78
2021/12/08 07:26:34;;;;;;;13.95;11.90;;;6.50;97.20;;;;;;1708740;28;20212;-78
2021/12/08 07:27:30;;;;;;;12.70;11.35;;;6.50;97.20;;;;;;1714630;28;20205;-78
2021/12/08 07:28:23;;;;;;;11.98;10.77;;;6.50;97.20;;;;;;1712679;28;20198;-78
2021/12/08 07:29:18;;;;;;;10.52;9.52;;;6.50;97.20;;;;;;1713474;28;20568;-78
2021/12/08 07:30:14;;;;;;;10.88;9.77;;;6.50;97.20;;;;;;1714707;28;20217;-78
2021/12/08 07:31:09;;;;;;;9.02;8.23;;;6.50;97.20;;;;;;1715772;28;20212;-78
2021/12/08 07:32:06;;;;;;;8.30;7.60;;;6.40;97.20;;;;;;1721687;28;20263;-78
2021/12/08 07:32:58;;;;;;;8.65;7.95;;;6.50;97.20;;;;;;1709517;28;20237;-78
2021/12/08 07:33:51;;;;;;;8.35;7.63;;;6.50;97.20;;;;;;1708527;28;20210;-78
2021/12/08 07:34:43;;;;;;;8.73;8.05;;;6.40;97.20;;;;;;1709042;29;20241;-79
2021/12/08 07:35:38;;;;;;;9.63;8.73;;;6.40;97.20;;;;;;1708765;29;20666;-78
2021/12/08 07:36:31;;;;;;;8.80;7.88;;;6.40;97.20;;;;;;1708774;29;20230;-78
2021/12/08 07:37:27;;;;;;;8.18;7.47;;;6.50;97.20;;;;;;1710008;28;20226;-78
2021/12/08 07:38:23;;;;;;;7.90;7.20;;;6.50;97.20;;;;;;1715469;28;20198;-78
2021/12/08 07:39:20;;;;;;;9.32;8.52;;;6.50;97.20;;;;;;1715778;28;20198;-78
2021/12/08 07:40:16;;;;;;;8.30;7.50;;;6.50;97.20;;;;;;1715463;28;20198;-78
2021/12/08 07:41:11;;;;;;;7.40;6.70;;;6.50;97.20;;;;;;1715605;28;20213;-78
2021/12/08 07:42:08;;;;;;;8.00;7.30;;;6.60;97.20;;;;;;1715793;28;20257;-78
2021/12/08 07:43:04;;;;;;;7.93;7.32;;;6.60;97.20;;;;;;1715754;28;20198;-78
2021/12/08 07:43:58;;;;;;;7.50;6.80;;;6.60;97.20;;;;;;1720548;28;20201;-77
2021/12/08 07:44:54;;;;;;;7.60;7.00;;;6.60;97.20;;;;;;1722299;28;20219;-78
2021/12/08 07:45:49;;;;;;;8.25;7.55;;;6.60;97.20;;;;;;1722113;28;20209;-78
2021/12/08 07:46:51;;;;;;;8.15;7.43;;;6.60;97.20;;;;;;1722184;28;20201;-78
2021/12/08 07:47:42;;;;;;;5.88;5.40;;;6.60;97.20;;;;;;1716970;28;20210;-78
2021/12/08 07:48:38;;;;;;;6.10;5.50;;;6.60;97.20;;;;;;1715116;28;20232;-78
2021/12/08 07:49:33;;;;;;;6.25;5.65;;;6.60;97.20;;;;;;1715457;28;20206;-78
2021/12/08 07:50:33;;;;;;;5.05;4.65;;;6.60;97.20;;;;;;1715508;28;20699;-78
2021/12/08 07:51:29;;;;;;;4.85;4.45;;;6.60;97.20;;;;;;1715552;28;20220;-78
2021/12/08 07:52:25;;;;;;;4.90;4.50;;;6.60;97.20;;;;;;1715627;28;20282;-78
2021/12/08 07:53:18;;;;;;;4.97;4.57;;;6.70;97.20;;;;;;1715542;28;20265;-78
2021/12/08 07:54:11;;;;;;;4.70;4.30;;;6.60;97.20;;;;;;1715076;28;20201;-77
2021/12/08 07:55:06;;;;;;;4.13;3.72;;;6.70;97.20;;;;;;1715661;28;20234;-78
2021/12/08 07:56:03;;;;;;;3.95;3.65;;;6.70;97.20;;;;;;1715454;28;20201;-78
2021/12/08 07:56:57;;;;;;;3.78;3.47;;;6.70;97.20;;;;;;1715628;28;20731;-78
2021/12/08 07:57:50;;;;;;;3.90;3.60;;;6.70;97.20;;;;;;1710861;28;20218;-78
2021/12/08 07:58:43;;;;;;;3.97;3.63;;;6.70;97.20;;;;;;1709242;28;20210;-78
2021/12/08 07:59:36;;;;;;;3.13;2.90;;;6.70;97.20;;;;;;1708800;29;20198;-78
2021/12/08 08:00:31;;;;;;;4.00;3.55;;;6.60;97.20;;;;;;1708639;28;20206;-77
2021/12/08 08:01:25;;;;;;;3.55;3.25;;;6.60;97.20;;;;;;1709022;29;20207;-77
2021/12/08 08:02:17;;;;;;;3.10;2.90;;;6.50;97.20;;;;;;1708816;29;20206;-78
2021/12/08 08:03:10;;;;;;;3.13;2.92;;;6.50;97.20;;;;;;1708997;28;20201;-78
2021/12/08 08:04:03;;;;;;;3.25;3.05;;;6.50;97.20;;;;;;1708408;28;20670;-78
2021/12/08 08:05:00;;;;;;;3.58;3.28;;;6.50;97.20;;;;;;1708267;29;20569;-77
2021/12/08 08:05:53;;;;;;;3.10;2.90;;;6.50;97.20;;;;;;1708327;29;20210;-78
2021/12/08 08:06:49;;;;;;;3.92;3.25;;;6.40;97.20;;;;;;1707953;28;20218;-78
2021/12/08 08:07:42;;;;;;;3.28;3.08;;;6.40;97.20;;;;;;1710958;28;20210;-78
2021/12/08 08:08:34;;;;;;;3.28;2.90;;;6.40;97.20;;;;;;1714352;28;20228;-78
2021/12/08 08:09:29;;;;;;;3.58;3.28;;;6.40;97.20;;;;;;1714512;28;20190;-78
2021/12/08 08:10:19;;;;;;;3.30;3.00;;;6.40;97.20;;;;;;1714525;28;20212;-78
2021/12/08 08:11:15;;;;;;;3.27;2.97;;;6.40;97.20;;;;;;1714405;28;20221;-78
2021/12/08 08:12:10;;;;;;;3.55;3.25;;;6.30;97.20;;;;;;1714977;28;20488;-78
2021/12/08 08:13:07;;;;;;;3.70;3.13;;;6.30;97.20;;;;;;1714940;28;20689;-78
2021/12/08 08:13:59;;;;;;;3.40;3.10;;;6.30;97.20;;;;;;1714683;28;20233;-77
2021/12/08 08:14:55;;;;;;;3.30;3.10;;;6.30;97.20;;;;;;1715244;28;20229;-78
2021/12/08 08:15:51;;;;;;;4.10;3.28;;;6.30;97.20;;;;;;1715193;28;20209;-77
2021/12/08 08:16:42;;;;;;;3.85;3.55;;;6.30;97.20;;;;;;1715068;28;20236;-78
2021/12/08 08:17:40;;;;;;;3.33;2.97;;;6.30;97.20;;;;;;1713102;28;20264;-77
2021/12/08 08:18:32;;;;;;;3.95;3.10;;;6.30;97.20;;;;;;1708477;29;20259;-78
2021/12/08 08:19:28;;;;;;;3.72;3.45;;;6.30;97.20;;;;;;1708392;29;20202;-78
2021/12/08 08:20:27;;;;;;;3.72;3.42;;;6.30;97.20;;;;;;1708691;29;20693;-78
2021/12/08 08:21:20;;;;;;;3.70;3.40;;;6.30;97.20;;;;;;1708546;29;20685;-78
2021/12/08 08:22:17;;;;;;;3.50;3.20;;;6.30;97.20;;;;;;1708408;28;20203;-78
2021/12/08 08:23:10;;;;;;;4.00;3.67;;;6.30;97.20;;;;;;1708704;29;20237;-77
2021/12/08 08:24:01;;;;;;;3.47;3.28;;;6.30;97.20;;;;;;1708492;28;20202;-77
2021/12/08 08:24:54;;;;;;;3.40;3.10;;;6.30;97.20;;;;;;1708533;29;20568;-78
2021/12/08 08:25:47;;;;;;;3.00;2.60;;;6.30;97.20;;;;;;1708357;29;20252;-77
2021/12/08 08:26:41;;;;;;;4.40;3.03;;;6.30;97.20;;;;;;1708586;29;20202;-78
2021/12/08 08:27:32;;;;;;;3.05;2.85;;;6.20;97.20;;;;;;1709672;28;20245;-77
2021/12/08 08:28:24;;;;;;;3.30;3.00;;;6.20;97.20;;;;;;1715499;28;20209;-78
2021/12/08 08:29:15;;;;;;;3.72;3.40;;;6.30;97.20;;;;;;1715229;28;20968;-78
2021/12/08 08:30:08;;;;;;;3.70;3.28;;;6.30;97.20;;;;;;1714522;28;20198;-78
2021/12/08 08:31:11;;;;;;;3.50;3.20;;;6.30;97.20;;;;;;1708622;28;20261;-78
2021/12/08 08:32:07;;;;;;;3.67;3.40;;;6.30;97.20;;;;;;1708837;29;20289;-78
2021/12/08 08:32:59;;;;;;;3.40;3.10;;;6.30;97.20;;;;;;1708472;29;20677;-78
2021/12/08 08:33:51;;;;;;;3.83;3.53;;;6.30;97.20;;;;;;1708105;29;20213;-78
2021/12/08 08:34:45;;;;;;;8.73;7.93;;;6.30;97.20;;;;;;1708663;29;20693;-78
2021/12/08 08:35:41;;;;;;;9.10;8.30;;;6.20;97.20;;;;;;1708170;28;20653;-78
2021/12/08 08:36:35;;;;;;;8.55;7.75;;;6.20;97.20;;;;;;1708594;29;20215;-78
2021/12/08 08:37:27;;;;;;;7.88;7.18;;;6.20;97.20;;;;;;1708282;28;20285;-77
2021/12/08 08:38:21;;;;;;;7.18;6.57;;;6.20;97.20;;;;;;1714969;28;20198;-78
2021/12/08 08:39:16;;;;;;;7.03;6.43;;;6.20;97.20;;;;;;1715114;28;20202;-78
2021/12/08 08:40:12;;;;;;;6.80;6.20;;;6.20;97.20;;;;;;1715389;28;20206;-78
2021/12/08 08:41:06;;;;;;;6.00;5.50;;;6.20;97.20;;;;;;1715570;28;20213;-78
2021/12/08 08:42:01;;;;;;;5.40;4.90;;;6.20;97.20;;;;;;1715118;28;20205;-78
2021/12/08 08:42:54;;;;;;;5.35;4.90;;;6.20;97.20;;;;;;1715285;28;20206;-78
2021/12/08 08:43:48;;;;;;;6.00;5.50;;;6.20;97.20;;;;;;1714979;28;20209;-78
2021/12/08 08:44:44;;;;;;;5.88;4.80;;;6.20;97.20;;;;;;1715489;28;20206;-78
2021/12/08 08:45:41;;;;;;;5.72;5.22;;;6.20;97.20;;;;;;1715016;28;20208;-78
2021/12/08 08:46:38;;;;;;;10.85;9.75;;;6.20;97.20;;;;;;1715220;28;20213;-77
2021/12/08 08:47:33;;;;;;;11.45;10.27;;;6.20;97.20;;;;;;1714957;28;20289;-78
2021/12/08 08:48:27;;;;;;;10.27;9.38;;;6.20;97.20;;;;;;1708382;29;20249;-78
2021/12/08 08:49:22;;;;;;;9.23;8.32;;;6.30;97.20;;;;;;1708181;29;20207;-78
2021/12/08 08:50:19;;;;;;;8.43;7.60;;;6.30;97.20;;;;;;1708479;28;20210;-78
2021/12/08 08:51:15;;;;;;;7.90;7.10;;;6.30;97.20;;;;;;1708244;29;20211;-78
2021/12/08 08:52:09;;;;;;;7.03;6.43;;;6.40;97.20;;;;;;1708442;29;20209;-78
2021/12/08 08:53:01;;;;;;;6.78;6.18;;;6.40;97.20;;;;;;1707998;29;20234;-78
2021/12/08 08:53:56;;;;;;;6.65;6.15;;;6.40;97.20;;;;;;1708253;29;20202;-78
2021/12/08 08:54:52;;;;;;;7.82;7.15;;;6.40;97.20;;;;;;1708364;29;20217;-78
2021/12/08 08:55:48;;;;;;;9.10;8.25;;;6.40;97.20;;;;;;1708344;29;20205;-78
2021/12/08 08:56:46;;;;;;;9.20;8.38;;;6.40;97.20;;;;;;1708277;29;20309;-78
2021/12/08 08:57:40;;;;;;;9.90;9.00;;;6.40;97.20;;;;;;1708472;28;20210;-78
2021/12/08 08:58:33;;;;;;;8.93;8.10;;;6.40;97.20;;;;;;1714758;28;20202;-78
2021/12/08 08:59:29;;;;;;;8.15;7.45;;;6.40;97.20;;;;;;1715051;28;20214;-77
2021/12/08 09:00:30;;;;;;;8.52;7.72;;;6.40;97.20;;;;;;1714708;28;20206;-78
2021/12/08 09:01:24;;;;;;;7.80;7.00;;;6.40;97.20;;;;;;1714826;28;20293;-77
2021/12/08 09:02:18;;;;;;;7.88;6.40;;;6.40;97.20;;;;;;1715096;28;20669;-78
2021/12/08 09:03:14;;;;;;;5.90;5.40;;;6.40;97.20;;;;;;1714774;28;20240;-78
2021/12/08 09:04:10;;;;;;;6.50;5.90;;;6.40;97.20;;;;;;1715179;28;20619;-77
2021/12/08 09:05:07;;;;;;;6.18;5.60;;;6.40;97.20;;;;;;1715030;28;20217;-78
2021/12/08 09:06:02;;;;;;;5.93;5.40;;;6.40;97.20;;;;;;1714891;28;20217;-78
2021/12/08 09:07:02;;;;;;;5.55;5.15;;;6.40;97.20;;;;;;1714600;28;20241;-77
2021/12/08 09:07:57;;;;;;;7.82;6.22;;;6.40;97.20;;;;;;1710663;28;20213;-77
2021/12/08 09:08:50;;;;;;;6.93;6.32;;;6.30;97.20;;;;;;1713193;28;20592;-78
2021/12/08 09:09:46;;;;;;;7.30;6.70;;;6.30;97.20;;;;;;1709206;28;20695;-78
2021/12/08 09:10:43;;;;;;;6.10;5.60;;;6.30;97.20;;;;;;1714034;28;20221;-78
2021/12/08 09:11:41;;;;;;;6.18;5.68;;;6.20;97.20;;;;;;1708260;29;20207;-78
2021/12/08 09:12:37;;;;;;;5.80;5.30;;;6.20;97.20;;;;;;1708047;28;20249;-78
2021/12/08 09:13:38;;;;;;;6.28;5.78;;;6.20;97.20;;;;;;1714815;28;20232;-78
2021/12/08 09:14:33;;;;;;;5.65;5.22;;;6.20;97.20;;;;;;1714854;28;20205;-78
2021/12/08 09:15:32;;;;;;;5.88;5.43;;;6.10;97.20;;;;;;1715172;28;20202;-78
2021/12/08 09:16:27;;;;;;;5.30;4.90;;;6.10;97.20;;;;;;1714766;28;20709;-78
2021/12/08 09:17:22;;;;;;;6.40;5.90;;;6.10;97.20;;;;;;1714792;28;20257;-78
2021/12/08 09:18:18;;;;;;;5.80;5.40;;;6.10;97.20;;;;;;1714494;28;20202;-78
2021/12/08 09:19:13;;;;;;;5.65;5.15;;;6.10;97.20;;;;;;1714709;28;20673;-78
2021/12/08 09:20:12;;;;;;;5.93;5.43;;;6.10;97.20;;;;;;1714889;28;20214;-78
2021/12/08 09:21:14;;;;;;;4.90;4.50;;;6.00;97.20;;;;;;1715332;28;20210;-78
2021/12/08 09:22:12;;;;;;;5.50;5.00;;;6.00;97.20;;;;;;1715328;28;20202;-78
2021/12/08 09:23:07;;;;;;;5.50;5.10;;;6.00;97.20;;;;;;1715007;28;20198;-78
2021/12/08 09:24:06;;;;;;;6.57;5.22;;;6.00;97.20;;;;;;1713884;28;20581;-78
2021/12/08 09:25:05;;;;;;;5.05;4.65;;;6.00;97.20;;;;;;1714955;28;20206;-78
2021/12/08 09:26:05;;;;;;;6.35;5.85;;;6.00;97.20;;;;;;1714952;28;20884;-78
2021/12/08 09:26:58;;;;;;;5.53;5.13;;;6.00;97.20;;;;;;1714780;28;20240;-78
2021/12/08 09:27:53;;;;;;;5.43;4.97;;;6.00;97.20;;;;;;1714670;28;20284;-78
2021/12/08 09:28:50;;;;;;;5.05;4.55;;;6.00;97.20;;;;;;1714782;28;20673;-78
2021/12/08 09:29:48;;;;;;;4.85;4.45;;;6.00;97.20;;;;;;1714750;28;20198;-78
2021/12/08 09:30:44;;;;;;;5.55;5.03;;;6.00;97.20;;;;;;1714562;28;20218;-78
2021/12/08 09:31:38;;;;;;;5.05;4.65;;;6.00;97.20;;;;;;1714932;28;20256;-78
2021/12/08 09:32:36;;;;;;;5.80;5.30;;;6.00;97.20;;;;;;1714796;28;20206;-78
2021/12/08 09:33:36;;;;;;;4.90;4.40;;;6.00;97.20;;;;;;1714460;28;20812;-78
2021/12/08 09:34:32;;;;;;;5.95;5.30;;;6.00;97.20;;;;;;1714658;28;20206;-78
2021/12/08 09:35:26;;;;;;;5.63;5.22;;;6.00;97.20;;;;;;1715151;28;20198;-78
2021/12/08 09:36:22;;;;;;;6.70;6.20;;;6.00;97.20;;;;;;1715244;28;20660;-78
2021/12/08 09:37:18;;;;;;;5.05;4.55;;;6.00;97.20;;;;;;1715125;28;20229;-78
2021/12/08 09:38:15;;;;;;;6.00;5.50;;;6.00;97.20;;;;;;1714738;28;20243;-78
2021/12/08 09:39:12;;;;;;;5.32;4.93;;;6.10;97.20;;;;;;1715124;28;20657;-78
2021/12/08 09:40:08;;;;;;;5.60;5.10;;;6.10;97.20;;;;;;1715271;28;20658;-78
2021/12/08 09:41:05;;;;;;;5.40;5.00;;;6.00;97.20;;;;;;1714979;28;20280;-78
2021/12/08 09:41:58;;;;;;;10.65;6.38;;;6.10;97.20;;;;;;1714683;28;20209;-78
2021/12/08 09:42:54;;;;;;;4.80;4.40;;;6.10;97.20;;;;;;1715159;28;20226;-78
2021/12/08 09:43:49;;;;;;;5.43;5.03;;;6.10;97.20;;;;;;1715187;28;20225;-78
2021/12/08 09:44:44;;;;;;;5.53;5.05;;;6.00;97.20;;;;;;1715063;28;20225;-78
2021/12/08 09:45:39;;;;;;;5.70;5.20;;;6.00;97.20;;;;;;1715517;28;20210;-78
2021/12/08 09:46:34;;;;;;;5.80;5.30;;;6.00;97.20;;;;;;1715350;28;20288;-78
2021/12/08 09:47:29;;;;;;;4.63;4.32;;;6.00;97.20;;;;;;1715147;28;20216;-78
2021/12/08 09:48:26;;;;;;;5.20;4.80;;;6.00;97.20;;;;;;1714809;28;20210;-78
2021/12/08 09:49:23;;;;;;;4.95;4.55;;;6.00;97.20;;;;;;1715201;28;20206;-78
2021/12/08 09:50:16;;;;;;;5.30;4.90;;;6.00;97.20;;;;;;1715532;28;20296;-78
2021/12/08 09:51:07;;;;;;;5.47;5.07;;;6.00;97.20;;;;;;1714950;28;20227;-78
2021/12/08 09:52:01;;;;;;;5.37;4.97;;;6.00;97.20;;;;;;1715311;28;20210;-78
2021/12/08 09:52:53;;;;;;;6.35;5.78;;;6.00;97.20;;;;;;1714895;28;20464;-78
2021/12/08 09:53:46;;;;;;;5.68;5.18;;;6.10;97.20;;;;;;1714466;28;20229;-77
2021/12/08 09:54:39;;;;;;;5.80;5.30;;;6.10;97.20;;;;;;1715006;28;20209;-79
2021/12/08 09:55:29;;;;;;;5.55;5.05;;;6.10;97.20;;;;;;1714907;28;20213;-78
2021/12/08 09:56:24;;;;;;;5.90;5.47;;;6.10;97.20;;;;;;1715121;28;20315;-79
2021/12/08 09:57:15;;;;;;;5.43;4.93;;;6.10;97.20;;;;;;1715025;28;20197;-79
2021/12/08 09:58:08;;;;;;;5.38;4.97;;;6.10;97.20;;;;;;1714641;28;20193;-79
2021/12/08 09:59:01;;;;;;;5.60;5.10;;;6.10;97.20;;;;;;1714882;28;20284;-78
2021/12/08 09:59:53;;;;;;;5.43;5.03;;;6.10;97.20;;;;;;1715118;28;20205;-78
2021/12/08 10:00:49;;;;;;;5.82;5.40;;;6.10;97.20;;;;;;1714495;28;20237;-79
2021/12/08 10:01:42;;;;;;;5.93;5.35;;;6.20;97.20;;;;;;1714626;28;20213;-78
2021/12/08 10:02:36;;;;;;;6.03;5.25;;;6.20;97.20;;;;;;1715431;28;20644;-78
2021/12/08 10:03:28;;;;;;;6.18;5.68;;;6.30;97.20;;;;;;1721316;28;20227;-79
2021/12/08 10:04:19;;;;;;;5.10;4.70;;;6.30;97.20;;;;;;1721293;28;20229;-78
2021/12/08 10:05:14;;;;;;;6.00;5.50;;;6.40;97.20;;;;;;1721280;28;20263;-78
2021/12/08 10:06:07;;;;;;;5.28;4.88;;;6.40;97.20;;;;;;1721769;28;20213;-79
2021/12/08 10:07:02;;;;;;;5.28;4.88;;;6.40;97.20;;;;;;1721322;28;20236;-77
2021/12/08 10:07:55;;;;;;;5.57;5.18;;;6.50;97.20;;;;;;1720399;28;20813;-78
2021/12/08 10:08:48;;;;;;;4.78;4.38;;;6.50;97.20;;;;;;1714969;28;20202;-78
2021/12/08 10:09:40;;;;;;;5.30;4.90;;;6.50;97.20;;;;;;1714951;28;20233;-78
2021/12/08 10:10:32;;;;;;;4.95;4.55;;;6.50;97.20;;;;;;1714323;28;20757;-78
2021/12/08 10:11:23;;;;;;;5.60;4.88;;;6.50;97.20;;;;;;1715451;28;20210;-78
2021/12/08 10:12:15;;;;;;;4.90;4.50;;;6.50;97.20;;;;;;1716002;28;20194;-78
2021/12/08 10:13:07;;;;;;;4.20;3.90;;;6.50;97.20;;;;;;1716086;28;20586;-78
2021/12/08 10:13:59;;;;;;;3.90;3.60;;;6.50;97.20;;;;;;1715656;28;20268;-79
2021/12/08 10:14:51;;;;;;;4.68;4.28;;;6.50;97.20;;;;;;1716230;28;20202;-78
2021/12/08 10:15:44;;;;;;;4.50;4.20;;;6.50;97.20;;;;;;1716065;28;20201;-78
2021/12/08 10:16:35;;;;;;;4.63;4.20;;;6.50;97.20;;;;;;1716030;28;20210;-78
2021/12/08 10:17:27;;;;;;;4.00;3.60;;;6.50;97.20;;;;;;1716249;28;20193;-78
2021/12/08 10:18:18;;;;;;;4.28;3.90;;;6.50;97.20;;;;;;1716484;28;20213;-78
2021/12/08 10:19:14;;;;;;;4.25;3.80;;;6.50;97.20;;;;;;1716454;28;20224;-78
2021/12/08 10:20:12;;;;;;;3.30;3.10;;;6.50;97.20;;;;;;1716187;28;20217;-78
2021/12/08 10:21:05;;;;;;;5.32;3.83;;;6.50;97.20;;;;;;1716542;28;20201;-79
2021/12/08 10:21:55;;;;;;;3.85;3.55;;;6.50;97.20;;;;;;1716225;28;20233;-79
2021/12/08 10:22:50;;;;;;;3.70;3.40;;;6.50;97.20;;;;;;1715921;28;20201;-78
2021/12/08 10:23:44;;;;;;;3.83;3.53;;;6.50;97.20;;;;;;1715876;28;21033;-78
2021/12/08 10:24:35;;;;;;;3.97;3.40;;;6.50;97.20;;;;;;1716018;28;20217;-78
2021/12/08 10:25:27;;;;;;;3.13;2.93;;;6.50;97.20;;;;;;1716080;28;20696;-78
2021/12/08 10:26:20;;;;;;;3.45;3.25;;;6.50;97.20;;;;;;1715961;28;20239;-79
2021/12/08 10:27:11;;;;;;;3.63;3.33;;;6.50;97.20;;;;;;1715989;28;20213;-78
2021/12/08 10:28:12;;;;;;;3.10;2.90;;;6.40;97.20;;;;;;1716108;28;20190;-78
2021/12/08 10:29:06;;;;;;;3.35;3.10;;;6.40;97.20;;;;;;1716087;28;20441;-78
2021/12/08 10:30:18;;;;;;;3.70;3.40;;;6.40;97.20;;;;;;1715784;28;20686;-78
2021/12/08 10:31:14;;;;;;;3.70;3.42;;;6.40;97.20;;;;;;1716201;28;20292;-78
2021/12/08 10:32:05;;;;;;;3.70;3.40;;;6.40;97.20;;;;;;1715985;28;20210;-78
2021/12/08 10:32:57;;;;;;;3.70;3.50;;;6.40;97.20;;;;;;1715816;28;20267;-78
2021/12/08 10:34:01;;;;;;;5.63;5.13;;;6.40;97.20;;;;;;1715357;28;20238;-78
2021/12/08 10:35:04;;;;;;;7.43;6.72;;;6.50;97.20;;;;;;1715809;28;20198;-78
2021/12/08 10:36:03;;;;;;;6.70;6.18;;;6.50;97.20;;;;;;1716132;28;20206;-78
2021/12/08 10:36:57;;;;;;;5.47;4.95;;;6.50;97.20;;;;;;1715869;28;20202;-78
2021/12/08 10:37:59;;;;;;;5.68;4.78;;;6.50;97.20;;;;;;1716222;28;20284;-79
2021/12/08 10:38:52;;;;;;;4.70;4.30;;;6.50;97.20;;;;;;1715960;28;20208;-78
2021/12/08 10:39:46;;;;;;;5.28;4.75;;;6.50;97.20;;;;;;1716135;28;20201;-78
2021/12/08 10:40:38;;;;;;;4.85;4.45;;;6.50;97.20;;;;;;1715985;28;20230;-78
2021/12/08 10:41:48;;;;;;;4.55;4.18;;;6.50;97.20;;;;;;1716110;28;20209;-78
2021/12/08 10:42:39;;;;;;;5.10;4.70;;;6.50;97.20;;;;;;1716345;28;20202;-78
2021/12/08 10:43:30;;;;;;;4.78;4.38;;;6.50;97.20;;;;;;1715847;28;20205;-78
2021/12/08 10:44:24;;;;;;;4.40;4.10;;;6.50;97.20;;;;;;1716100;28;20205;-78
2021/12/08 10:45:22;;;;;;;6.38;5.40;;;6.50;97.20;;;;;;1716140;28;20465;-78
2021/12/08 10:46:13;;;;;;;4.60;4.20;;;6.50;97.20;;;;;;1715675;28;20212;-78
2021/12/08 10:47:07;;;;;;;4.80;4.40;;;6.40;97.20;;;;;;1715205;28;20632;-78
2021/12/08 10:47:59;;;;;;;5.00;4.60;;;6.40;97.20;;;;;;1715277;28;20696;-77
2021/12/08 10:48:53;;;;;;;5.70;5.20;;;6.40;97.20;;;;;;1715113;28;20205;-78